createdAt,value
2022-11-30T00:02:39.115Z,98259.41
2022-11-30T00:07:41.819Z,98256.59
2022-11-30T00:12:44.595Z,98252.72
2022-11-30T00:17:47.492Z,98256.94
2022-11-30T00:22:49.855Z,98250.50
2022-11-30T00:27:52.595Z,98252.44
2022-11-30T00:32:58.315Z,98244.84
2022-11-30T00:38:03.359Z,98255.03
2022-11-30T00:43:05.709Z,98245.50
2022-11-30T00:48:08.121Z,98246.28
2022-11-30T00:53:10.844Z,98250.94
2022-11-30T00:58:14.371Z,98252.03
2022-11-30T01:03:16.999Z,98248.81
2022-11-30T01:08:19.386Z,98251.81
2022-11-30T01:13:21.782Z,98254.84
2022-11-30T01:18:24.217Z,98255.72
2022-11-30T01:23:26.596Z,98256.81
2022-11-30T01:28:29.045Z,98264.19
2022-11-30T01:33:31.891Z,98266.84
2022-11-30T01:38:36.784Z,98267.91
2022-11-30T01:43:52.791Z,98282.28
2022-11-30T01:49:00.799Z,98288.53
2022-11-30T01:54:06.039Z,98274.44
2022-11-30T01:59:08.709Z,98273.56
2022-11-30T02:04:22.152Z,98271.25
2022-11-30T02:09:25.903Z,98272.47
2022-11-30T02:14:45.538Z,98275.91
2022-11-30T02:19:51.281Z,98285.84
2022-11-30T02:25:34.348Z,98281.25
2022-11-30T02:30:40.763Z,98278.94
2022-11-30T02:35:53.077Z,98277.94
2022-11-30T02:40:57.080Z,98278.03
2022-11-30T02:46:05.970Z,98274.78
2022-11-30T02:51:11.207Z,98279.00
2022-11-30T02:56:13.765Z,98277.50
2022-11-30T03:01:16.282Z,98277.00
2022-11-30T03:06:18.762Z,98282.78
2022-11-30T03:11:25.806Z,98281.28
2022-11-30T03:16:28.180Z,98288.00
2022-11-30T03:21:30.694Z,98289.91
2022-11-30T03:26:33.041Z,98287.47
2022-11-30T03:31:35.495Z,98300.00
2022-11-30T03:36:38.038Z,98297.75
2022-11-30T03:41:40.719Z,98288.44
2022-11-30T03:46:43.330Z,98284.63
2022-11-30T03:51:45.710Z,98299.38
2022-11-30T03:56:48.045Z,98301.63
2022-11-30T04:01:50.457Z,98295.09
2022-11-30T04:06:52.874Z,98292.50
2022-11-30T04:11:55.306Z,98293.81
2022-11-30T04:16:57.703Z,98289.28
2022-11-30T04:22:00.116Z,98300.63
2022-11-30T04:27:02.521Z,98295.25
2022-11-30T04:32:04.985Z,98300.44
2022-11-30T04:37:07.629Z,98303.69
2022-11-30T04:42:10.635Z,98302.22
2022-11-30T04:47:12.997Z,98298.28
2022-11-30T04:52:15.542Z,98299.88
2022-11-30T04:57:18.028Z,98297.47
2022-11-30T05:02:20.447Z,98296.16
2022-11-30T05:07:22.879Z,98298.06
2022-11-30T05:12:25.318Z,98304.94
2022-11-30T05:17:27.738Z,98298.72
2022-11-30T05:22:30.116Z,98303.25
2022-11-30T05:27:32.543Z,98310.22
2022-11-30T05:32:35.205Z,98316.38
2022-11-30T05:37:37.842Z,98314.84
2022-11-30T05:42:40.562Z,98310.72
2022-11-30T05:47:43.053Z,98318.38
2022-11-30T05:52:45.491Z,98317.19
2022-11-30T05:57:47.866Z,98320.28
2022-11-30T06:02:55.178Z,98318.66
2022-11-30T06:07:59.895Z,98321.00
2022-11-30T06:13:08.182Z,98322.19
2022-11-30T06:18:13.215Z,98322.53
2022-11-30T06:23:15.557Z,98314.03
2022-11-30T06:28:17.895Z,98312.75
2022-11-30T06:33:23.645Z,98314.31
2022-11-30T06:38:26.412Z,98309.69
2022-11-30T06:43:32.117Z,98321.66
2022-11-30T06:48:35.567Z,98315.84
2022-11-30T06:53:38.367Z,98320.94
2022-11-30T06:58:41.569Z,98324.78
2022-11-30T07:03:44.172Z,98328.22
2022-11-30T07:08:46.567Z,98334.03
2022-11-30T07:13:48.928Z,98329.31
2022-11-30T07:18:51.358Z,98333.13
2022-11-30T07:24:12.640Z,98340.13
2022-11-30T07:29:15.017Z,98330.06
2022-11-30T07:34:17.395Z,98342.06
2022-11-30T07:39:19.745Z,98341.69
2022-11-30T07:44:22.150Z,98344.06
2022-11-30T07:49:24.556Z,98339.41
2022-11-30T07:54:26.949Z,98344.44
2022-11-30T07:59:29.321Z,98350.22
2022-11-30T08:04:31.729Z,98354.09
2022-11-30T08:09:34.551Z,98369.16
2022-11-30T08:14:56.508Z,98363.72
2022-11-30T08:19:59.290Z,98366.28
2022-11-30T08:25:02.114Z,98366.50
2022-11-30T08:30:04.955Z,98372.03
2022-11-30T08:35:07.776Z,98379.78
2022-11-30T08:40:11.028Z,98374.19
2022-11-30T08:45:13.479Z,98383.34
2022-11-30T08:50:15.930Z,98377.63
2022-11-30T08:55:18.316Z,98377.53
2022-11-30T09:00:21.155Z,98383.09
2022-11-30T09:05:24.365Z,98392.25
2022-11-30T09:10:27.247Z,98393.09
2022-11-30T09:15:29.818Z,98380.00
2022-11-30T09:20:32.303Z,98391.44
2022-11-30T09:25:34.795Z,98395.88
2022-11-30T09:30:37.311Z,98400.81
2022-11-30T09:35:39.977Z,98406.44
2022-11-30T09:40:42.801Z,98410.22
2022-11-30T09:46:01.888Z,98411.28
2022-11-30T09:51:16.760Z,98405.81
2022-11-30T09:56:30.467Z,98394.94
2022-11-30T10:01:37.467Z,98395.22
2022-11-30T10:06:54.761Z,98402.19
2022-11-30T10:12:13.597Z,98395.41
2022-11-30T10:17:22.942Z,98387.41
2022-11-30T10:22:47.259Z,98392.53
2022-11-30T10:27:54.835Z,98386.59
2022-11-30T10:33:05.411Z,98395.47
2022-11-30T10:38:31.913Z,98387.16
2022-11-30T10:43:55.319Z,98388.81
2022-11-30T10:49:08.300Z,98387.75
2022-11-30T10:54:20.581Z,98388.88
2022-11-30T10:59:35.488Z,98383.31
2022-11-30T11:04:37.890Z,98378.03
2022-11-30T11:09:52.413Z,98385.84
2022-11-30T11:15:22.380Z,98383.50
2022-11-30T11:20:39.474Z,98373.31
2022-11-30T11:25:43.366Z,98380.28
2022-11-30T11:30:45.908Z,98378.66
2022-11-30T11:35:52.274Z,98374.03
2022-11-30T11:41:04.478Z,98378.66
2022-11-30T11:46:14.655Z,98383.38
2022-11-30T11:51:34.045Z,98393.41
2022-11-30T11:56:37.969Z,98381.72
2022-11-30T12:01:45.994Z,98375.47
2022-11-30T12:06:51.908Z,98378.19
2022-11-30T12:11:54.468Z,98374.28
2022-11-30T12:17:05.326Z,98374.16
2022-11-30T12:22:25.421Z,98371.94
2022-11-30T12:27:42.606Z,98372.59
2022-11-30T12:33:07.360Z,98374.78
2022-11-30T12:38:49.948Z,98373.09
2022-11-30T12:44:17.007Z,98370.03
2022-11-30T12:49:45.021Z,98369.97
2022-11-30T12:55:04.723Z,98367.00
2022-11-30T13:00:19.334Z,98366.84
2022-11-30T13:05:54.583Z,98366.34
2022-11-30T13:11:08.516Z,98374.97
2022-11-30T13:16:11.425Z,98374.25
2022-11-30T13:21:42.232Z,98368.16
2022-11-30T13:27:01.822Z,98378.13
2022-11-30T13:32:41.132Z,98375.41
2022-11-30T13:37:36.783Z,98369.56
2022-11-30T13:42:50.126Z,98374.31
2022-11-30T13:47:56.438Z,98380.59
2022-11-30T13:52:59.068Z,98374.34
2022-11-30T13:58:01.518Z,98368.88
2022-11-30T14:03:21.615Z,98366.88
2022-11-30T14:08:24.053Z,98369.78
2022-11-30T14:13:31.402Z,98367.09
2022-11-30T14:18:44.369Z,98374.31
2022-11-30T14:23:57.751Z,98372.78
2022-11-30T14:29:08.907Z,98372.72
2022-11-30T14:34:36.322Z,98375.13
2022-11-30T14:39:44.251Z,98385.28
2022-11-30T14:44:47.879Z,98377.84
2022-11-30T14:49:52.581Z,98380.72
2022-11-30T14:55:12.558Z,98387.63
2022-11-30T15:00:18.255Z,98376.34
2022-11-30T15:05:28.800Z,98378.28
2022-11-30T15:10:34.234Z,98375.22
2022-11-30T15:15:41.601Z,98371.28
2022-11-30T15:21:00.002Z,98382.81
2022-11-30T15:26:11.760Z,98381.25
2022-11-30T15:31:16.629Z,98383.63
2022-11-30T15:36:32.495Z,98381.38
2022-11-30T15:41:36.721Z,98381.75
2022-11-30T15:46:46.422Z,98383.41
2022-11-30T15:52:05.108Z,98393.06
2022-11-30T15:57:09.301Z,98394.84
2022-11-30T16:02:33.414Z,98388.50
2022-11-30T16:07:48.767Z,98397.25
2022-11-30T16:12:53.031Z,98402.28
2022-11-30T16:18:23.002Z,98410.16
2022-11-30T16:23:26.638Z,98415.03
2022-11-30T16:28:29.020Z,98415.16
2022-11-30T16:33:33.480Z,98414.69
2022-11-30T16:38:35.881Z,98411.84
2022-11-30T16:43:41.264Z,98415.75
2022-11-30T16:48:44.135Z,98417.28
2022-11-30T16:53:47.300Z,98414.94
2022-11-30T16:58:50.158Z,98414.81
2022-11-30T17:03:52.832Z,98413.13
2022-11-30T17:08:55.234Z,98420.31
2022-11-30T17:13:57.734Z,98422.66
2022-11-30T17:19:00.140Z,98427.94
2022-11-30T17:24:03.435Z,98434.88
2022-11-30T17:29:06.232Z,98432.59
2022-11-30T17:34:08.828Z,98443.41
2022-11-30T17:39:11.530Z,98449.72
2022-11-30T17:44:14.167Z,98437.75
2022-11-30T17:49:16.600Z,98439.63
2022-11-30T17:54:19.293Z,98443.66
2022-11-30T17:59:22.264Z,98447.94
2022-11-30T18:04:24.733Z,98446.84
2022-11-30T18:09:27.838Z,98448.44
2022-11-30T18:14:30.258Z,98444.44
2022-11-30T18:19:32.721Z,98451.44
2022-11-30T18:24:35.149Z,98449.91
2022-11-30T18:29:37.521Z,98459.28
2022-11-30T18:34:40.274Z,98459.28
2022-11-30T18:39:43.218Z,98470.34
2022-11-30T18:44:45.963Z,98481.09
2022-11-30T18:49:48.619Z,98476.00
2022-11-30T18:54:51.267Z,98472.28
2022-11-30T18:59:54.132Z,98474.94
2022-11-30T19:04:56.610Z,98477.69
2022-11-30T19:09:58.972Z,98470.34
2022-11-30T19:15:05.026Z,98480.34
2022-11-30T19:20:08.007Z,98478.00
2022-11-30T19:25:10.620Z,98483.38
2022-11-30T19:30:13.897Z,98486.63
2022-11-30T19:35:16.404Z,98485.75
2022-11-30T19:40:18.903Z,98499.13
2022-11-30T19:45:21.671Z,98495.34
2022-11-30T19:50:24.464Z,98508.47
2022-11-30T19:55:29.447Z,98500.72
2022-11-30T20:00:31.881Z,98496.91
2022-11-30T20:05:34.683Z,98496.03
2022-11-30T20:10:40.726Z,98499.97
2022-11-30T20:15:43.538Z,98491.94
2022-11-30T20:20:46.217Z,98496.91
2022-11-30T20:25:48.807Z,98508.28
2022-11-30T20:30:51.313Z,98506.38
2022-11-30T20:35:53.761Z,98518.41
2022-11-30T20:40:56.467Z,98521.84
2022-11-30T20:45:58.920Z,98523.75
2022-11-30T20:51:29.293Z,98523.41
2022-11-30T20:56:32.659Z,98521.13
2022-11-30T21:01:35.762Z,98521.94
2022-11-30T21:06:38.548Z,98531.97
2022-11-30T21:11:41.246Z,98528.13
2022-11-30T21:16:43.922Z,98534.38
2022-11-30T21:21:46.565Z,98536.75
2022-11-30T21:26:49.091Z,98528.16
2022-11-30T21:31:51.453Z,98523.22
2022-11-30T21:36:53.927Z,98539.97
2022-11-30T21:41:56.575Z,98531.78
2022-11-30T21:46:59.172Z,98531.41
2022-11-30T21:52:01.602Z,98534.63
2022-11-30T21:57:04.180Z,98527.66
2022-11-30T22:02:06.661Z,98527.66
2022-11-30T22:07:12.866Z,98526.00
2022-11-30T22:12:15.387Z,98529.84
2022-11-30T22:17:17.803Z,98533.03
2022-11-30T22:22:20.175Z,98540.03
2022-11-30T22:27:22.583Z,98541.50
2022-11-30T22:32:25.030Z,98536.19
2022-11-30T22:37:27.409Z,98533.03
2022-11-30T22:42:29.771Z,98540.41
2022-11-30T22:47:32.165Z,98538.47
2022-11-30T22:53:01.475Z,98528.38
2022-11-30T22:57:57.124Z,98533.81
2022-11-30T23:02:59.559Z,98531.53
2022-11-30T23:08:02.071Z,98529.56
2022-11-30T23:13:04.642Z,98531.53
2022-11-30T23:18:07.114Z,98532.34
2022-11-30T23:23:09.510Z,98539.34
2022-11-30T23:28:12.282Z,98540.88
2022-11-30T23:33:14.910Z,98530.06
2022-11-30T23:38:17.341Z,98531.94
2022-11-30T23:43:19.716Z,98532.34
2022-11-30T23:48:22.105Z,98529.25
2022-11-30T23:53:24.976Z,98525.34
2022-11-30T23:58:27.419Z,98525.03
